Ruff, Washington
Current Conditions -  °F | °C
As of 12:28 AM on Friday 19 Dec 2014 (Local Time) from KMWH Reporting Station
Haze Haze  
Wind Chill: 38°   Ceiling: 400
Heat Index: 38°   Visibility: 5mi
Dew Point: 37°   Wind: 0mph
Humidity: 97%   Direction: NA
Pressure: 29.87"   Gusts: NA
Location:  47.3463°N, 119.014°W
Report Text: KMWH 190828Z AUTO 00000KT 5SM BR BKN004 BKN050 OVC075 03/03 A2987 RMK AO2 T00330028
Loading
Personal Weather Stations






























Interactive Weather Map New forecast layout! Learn more

10-Day Weather Forecast

Advertisements
Track Severe Weather on mobile